createdAt,value
2018-05-26T00:00:38.372Z,96.94
2018-05-26T00:01:38.483Z,96.75
2018-05-26T00:02:38.583Z,96.27
2018-05-26T00:03:38.667Z,95.98
2018-05-26T00:04:38.778Z,95.51
2018-05-26T00:05:38.870Z,94.93
2018-05-26T00:06:38.976Z,94.55
2018-05-26T00:07:39.072Z,94.64
2018-05-26T00:08:39.211Z,94.64
2018-05-26T00:09:39.340Z,94.55
2018-05-26T00:10:39.498Z,94.07
2018-05-26T00:11:39.612Z,94.35
2018-05-26T00:12:39.619Z,94.64
2018-05-26T00:13:39.688Z,94.26
2018-05-26T00:14:39.833Z,93.88
2018-05-26T00:15:39.953Z,93.78
2018-05-26T00:16:40.148Z,94.07
2018-05-26T00:17:40.253Z,93.11
2018-05-26T00:18:40.347Z,93.54
2018-05-26T00:19:40.499Z,93.49
2018-05-26T00:20:40.738Z,93.69
2018-05-26T00:21:40.792Z,93.69
2018-05-26T00:22:40.763Z,93.30
2018-05-26T00:23:40.942Z,93.44
2018-05-26T00:24:40.966Z,93.44
2018-05-26T00:25:41.073Z,93.40
2018-05-26T00:26:41.259Z,92.97
2018-05-26T00:27:41.413Z,93.21
2018-05-26T00:28:41.492Z,92.63
2018-05-26T00:29:41.484Z,92.73
2018-05-26T00:30:41.589Z,93.35
2018-05-26T00:31:41.671Z,92.92
2018-05-26T00:32:41.914Z,92.92
2018-05-26T00:33:41.983Z,93.35
2018-05-26T00:34:41.950Z,92.73
2018-05-26T00:35:42.096Z,92.77
2018-05-26T00:36:42.183Z,93.30
2018-05-26T00:37:42.308Z,93.59
2018-05-26T00:38:42.406Z,94.45
2018-05-26T00:39:42.504Z,94.64
2018-05-26T00:40:42.713Z,95.07
2018-05-26T00:41:42.698Z,95.65
2018-05-26T00:42:42.840Z,95.46
2018-05-26T00:43:42.936Z,95.56
2018-05-26T00:44:43.038Z,95.84
2018-05-26T00:45:43.142Z,95.94
2018-05-26T00:46:43.246Z,95.27
2018-05-26T00:47:43.359Z,95.46
2018-05-26T00:48:43.456Z,95.31
2018-05-26T00:49:43.552Z,95.51
2018-05-26T00:50:43.662Z,95.65
2018-05-26T00:51:43.753Z,94.89
2018-05-26T00:52:43.852Z,95.12
2018-05-26T00:53:43.946Z,94.64
2018-05-26T00:54:44.034Z,94.74
2018-05-26T00:55:44.162Z,94.17
2018-05-26T00:56:44.263Z,94.55
2018-05-26T00:57:44.364Z,94.55
2018-05-26T00:58:44.474Z,93.98
2018-05-26T00:59:44.572Z,93.98
2018-05-26T01:00:44.674Z,93.59
2018-05-26T01:01:44.799Z,93.78
2018-05-26T01:02:44.891Z,94.26
2018-05-26T01:03:44.997Z,94.98
2018-05-26T01:04:45.129Z,96.13
2018-05-26T01:05:45.251Z,96.70
2018-05-26T01:06:45.345Z,96.84
2018-05-26T01:07:45.434Z,97.80
2018-05-26T01:08:45.529Z,97.61
2018-05-26T01:09:45.631Z,97.80
2018-05-26T01:10:45.721Z,98.00
2018-05-26T01:11:45.912Z,98.19
2018-05-26T01:12:45.875Z,98.47
2018-05-26T01:13:45.979Z,98.19
2018-05-26T01:14:46.084Z,97.52
2018-05-26T01:15:46.179Z,98.14
2018-05-26T01:16:46.282Z,97.56
2018-05-26T01:17:46.378Z,97.09
2018-05-26T01:18:46.462Z,96.70
2018-05-26T01:19:46.600Z,96.51
2018-05-26T01:20:46.702Z,96.13
2018-05-26T01:21:46.829Z,95.75
2018-05-26T01:22:46.915Z,95.84
2018-05-26T01:23:47.013Z,95.17
2018-05-26T01:24:47.116Z,95.56
2018-05-26T01:25:47.201Z,95.46
2018-05-26T01:26:47.293Z,94.79
2018-05-26T01:27:47.378Z,94.98
2018-05-26T01:28:47.470Z,94.60
2018-05-26T01:29:47.559Z,94.98
2018-05-26T01:30:47.677Z,94.02
2018-05-26T01:31:47.797Z,94.50
2018-05-26T01:32:47.889Z,94.31
2018-05-26T01:33:48.009Z,94.21
2018-05-26T01:34:48.113Z,94.40
2018-05-26T01:35:48.196Z,94.79
2018-05-26T01:36:48.317Z,94.40
2018-05-26T01:37:48.437Z,94.69
2018-05-26T01:38:48.545Z,95.22
2018-05-26T01:39:48.646Z,95.22
2018-05-26T01:40:48.735Z,96.27
2018-05-26T01:41:48.833Z,97.23
2018-05-26T01:42:48.982Z,96.84
2018-05-26T01:43:49.073Z,97.42
2018-05-26T01:44:49.192Z,97.71
2018-05-26T01:45:49.371Z,98.00
2018-05-26T01:46:49.344Z,97.61
2018-05-26T01:47:49.461Z,97.71
2018-05-26T01:48:49.570Z,97.52
2018-05-26T01:49:49.686Z,97.23
2018-05-26T01:50:49.791Z,97.04
2018-05-26T01:51:49.876Z,96.47
2018-05-26T01:52:50.011Z,95.61
2018-05-26T01:53:50.102Z,95.31
2018-05-26T01:54:50.207Z,95.61
2018-05-26T01:55:50.301Z,95.51
2018-05-26T01:56:50.406Z,95.03
2018-05-26T01:57:50.504Z,94.93
2018-05-26T01:58:50.611Z,95.22
2018-05-26T01:59:50.712Z,95.03
2018-05-26T02:00:50.881Z,94.65
2018-05-26T02:01:50.881Z,94.65
2018-05-26T02:02:50.982Z,94.26
2018-05-26T02:03:51.129Z,94.55
2018-05-26T02:04:51.224Z,94.45
2018-05-26T02:05:51.315Z,94.36
2018-05-26T02:06:51.416Z,94.17
2018-05-26T02:07:51.515Z,94.55
2018-05-26T02:08:51.619Z,95.61
2018-05-26T02:09:51.719Z,96.42
2018-05-26T02:10:51.818Z,96.42
2018-05-26T02:11:51.917Z,95.98
2018-05-26T02:12:52.014Z,96.18
2018-05-26T02:13:52.112Z,96.18
2018-05-26T02:14:52.212Z,95.79
2018-05-26T02:15:52.389Z,95.89
2018-05-26T02:16:52.384Z,95.22
2018-05-26T02:17:52.504Z,95.31
2018-05-26T02:18:52.582Z,95.61
2018-05-26T02:19:52.701Z,95.41
2018-05-26T02:20:52.834Z,94.93
2018-05-26T02:21:52.964Z,94.45
2018-05-26T02:22:53.057Z,94.74
2018-05-26T02:23:53.156Z,94.55
2018-05-26T02:24:53.334Z,94.74
2018-05-26T02:25:53.334Z,94.45
2018-05-26T02:26:53.431Z,95.03
2018-05-26T02:27:53.536Z,94.74
2018-05-26T02:28:53.628Z,95.22
2018-05-26T02:29:53.729Z,95.22
2018-05-26T02:30:53.825Z,95.03
2018-05-26T02:31:53.924Z,94.55
2018-05-26T02:32:54.024Z,94.93
2018-05-26T02:33:54.120Z,94.93
2018-05-26T02:34:54.224Z,94.84
2018-05-26T02:35:54.337Z,94.36
2018-05-26T02:36:54.427Z,94.55
2018-05-26T02:37:54.526Z,94.07
2018-05-26T02:38:54.626Z,94.36
2018-05-26T02:39:54.722Z,94.65
2018-05-26T02:40:54.821Z,94.36
2018-05-26T02:41:54.921Z,94.17
2018-05-26T02:42:55.021Z,94.02
2018-05-26T02:43:55.122Z,94.21
2018-05-26T02:44:55.216Z,95.17
2018-05-26T02:45:55.314Z,95.07
2018-05-26T02:46:55.455Z,95.36
2018-05-26T02:47:55.530Z,95.46
2018-05-26T02:48:55.629Z,95.46
2018-05-26T02:49:55.726Z,95.56
2018-05-26T02:50:55.825Z,94.79
2018-05-26T02:51:55.929Z,95.17
2018-05-26T02:52:56.021Z,94.50
2018-05-26T02:53:56.119Z,94.70
2018-05-26T02:54:56.217Z,94.98
2018-05-26T02:55:56.315Z,95.17
2018-05-26T02:56:56.415Z,94.70
2018-05-26T02:57:56.523Z,95.07
2018-05-26T02:58:56.625Z,94.50
2018-05-26T02:59:56.723Z,94.89
2018-05-26T03:00:56.822Z,94.02
2018-05-26T03:01:56.923Z,94.41
2018-05-26T03:02:57.024Z,94.41
2018-05-26T03:03:57.121Z,94.31
2018-05-26T03:04:57.221Z,94.41
2018-05-26T03:05:57.318Z,94.02
2018-05-26T03:06:57.420Z,93.74
2018-05-26T03:07:57.516Z,93.93
2018-05-26T03:08:57.613Z,93.93
2018-05-26T03:09:57.711Z,93.84
2018-05-26T03:10:57.809Z,93.45
2018-05-26T03:11:57.908Z,93.45
2018-05-26T03:12:58.023Z,92.97
2018-05-26T03:13:58.118Z,92.88
2018-05-26T03:14:58.218Z,93.16
2018-05-26T03:15:58.316Z,92.97
2018-05-26T03:16:58.412Z,93.16
2018-05-26T03:17:58.510Z,93.26
2018-05-26T03:18:58.611Z,92.88
2018-05-26T03:19:58.707Z,93.07
2018-05-26T03:20:58.798Z,92.69
2018-05-26T03:21:58.890Z,92.02
2018-05-26T03:22:58.986Z,92.11
2018-05-26T03:23:59.087Z,92.11
2018-05-26T03:24:59.186Z,92.40
2018-05-26T03:25:59.284Z,92.49
2018-05-26T03:26:59.378Z,92.02
2018-05-26T03:27:59.476Z,92.49
2018-05-26T03:28:59.575Z,92.78
2018-05-26T03:29:59.673Z,92.59
2018-05-26T03:30:59.774Z,93.16
2018-05-26T03:31:59.873Z,93.35
2018-05-26T03:32:59.971Z,93.26
2018-05-26T03:34:00.065Z,93.07
2018-05-26T03:35:00.159Z,93.55
2018-05-26T03:36:00.268Z,93.45
2018-05-26T03:37:00.309Z,93.35
2018-05-26T03:38:00.545Z,93.55
2018-05-26T03:39:00.548Z,93.45
2018-05-26T03:40:00.676Z,93.26
2018-05-26T03:41:00.770Z,93.55
2018-05-26T03:42:00.868Z,93.64
2018-05-26T03:43:00.968Z,93.35
2018-05-26T03:44:01.095Z,93.84
2018-05-26T03:45:01.142Z,93.64
2018-05-26T03:46:01.231Z,93.55
2018-05-26T03:47:01.374Z,93.16
2018-05-26T03:48:01.521Z,93.35
2018-05-26T03:49:01.623Z,93.26
2018-05-26T03:50:01.808Z,93.16
2018-05-26T03:51:01.907Z,93.07
2018-05-26T03:52:02.202Z,93.26
2018-05-26T03:53:02.069Z,93.35
2018-05-26T03:54:02.177Z,92.69
2018-05-26T03:55:02.263Z,93.26
2018-05-26T03:56:02.350Z,92.97
2018-05-26T03:57:02.448Z,92.88
2018-05-26T03:58:02.576Z,92.69
2018-05-26T03:59:02.669Z,93.07
2018-05-26T04:00:02.761Z,92.78
2018-05-26T04:01:02.858Z,92.83
2018-05-26T04:02:02.962Z,92.44
2018-05-26T04:03:03.095Z,92.49
2018-05-26T04:04:03.178Z,92.59
2018-05-26T04:05:03.288Z,92.59
2018-05-26T04:06:03.426Z,92.59
2018-05-26T04:07:03.508Z,92.69
2018-05-26T04:08:03.599Z,92.83
2018-05-26T04:09:03.735Z,92.35
2018-05-26T04:10:03.829Z,92.35
2018-05-26T04:11:03.927Z,92.02
2018-05-26T04:12:04.027Z,92.21
2018-05-26T04:13:04.283Z,92.35
2018-05-26T04:14:04.265Z,91.87
2018-05-26T04:15:04.388Z,91.97
2018-05-26T04:16:04.493Z,91.68
2018-05-26T04:17:04.620Z,91.97
2018-05-26T04:18:04.734Z,91.77
2018-05-26T04:19:04.856Z,91.77
2018-05-26T04:20:04.975Z,91.58
2018-05-26T04:21:05.072Z,91.58
2018-05-26T04:22:05.180Z,91.20
2018-05-26T04:23:05.266Z,91.11
2018-05-26T04:24:05.368Z,91.39
2018-05-26T04:25:05.461Z,91.58
2018-05-26T04:26:05.558Z,91.20
2018-05-26T04:27:05.653Z,91.39
2018-05-26T04:28:05.773Z,91.01
2018-05-26T04:29:05.870Z,91.01
2018-05-26T04:30:05.969Z,91.20
2018-05-26T04:31:06.068Z,91.30
2018-05-26T04:32:06.167Z,91.20
2018-05-26T04:33:06.258Z,91.49
2018-05-26T04:34:06.354Z,92.25
2018-05-26T04:35:06.454Z,91.97
2018-05-26T04:36:06.552Z,91.77
2018-05-26T04:37:06.646Z,91.68
2018-05-26T04:38:06.773Z,91.68
2018-05-26T04:39:07.883Z,92.44
2018-05-26T04:40:07.880Z,92.83
2018-05-26T04:41:07.218Z,93.16
2018-05-26T04:42:07.204Z,94.41
2018-05-26T04:43:07.294Z,95.51
2018-05-26T04:44:07.437Z,95.41
2018-05-26T04:45:08.355Z,96.27
2018-05-26T04:46:07.624Z,96.75
2018-05-26T04:47:07.715Z,97.13
2018-05-26T04:48:07.746Z,96.94
2018-05-26T04:49:08.030Z,96.94
2018-05-26T04:50:07.988Z,96.94
2018-05-26T04:51:08.078Z,96.75
2018-05-26T04:52:08.175Z,96.32
2018-05-26T04:53:08.265Z,96.51
2018-05-26T04:54:08.366Z,95.75
2018-05-26T04:55:08.672Z,95.07
2018-05-26T04:56:08.549Z,95.27
2018-05-26T04:57:08.761Z,95.07
2018-05-26T04:58:08.828Z,95.22
2018-05-26T04:59:08.912Z,94.65
2018-05-26T05:00:08.945Z,94.26
2018-05-26T05:01:08.907Z,94.17
2018-05-26T05:02:09.106Z,93.88
2018-05-26T05:03:09.288Z,93.69
2018-05-26T05:04:09.197Z,93.69
2018-05-26T05:05:09.474Z,93.69
2018-05-26T05:06:09.380Z,93.45
2018-05-26T05:07:10.178Z,93.54
2018-05-26T05:08:09.649Z,92.97
2018-05-26T05:09:09.648Z,92.78
2018-05-26T05:10:09.767Z,92.78
2018-05-26T05:11:09.846Z,92.78
2018-05-26T05:12:10.051Z,92.11
2018-05-26T05:13:10.048Z,92.40
2018-05-26T05:14:10.254Z,92.40
2018-05-26T05:15:10.290Z,91.82
2018-05-26T05:16:10.268Z,92.68
2018-05-26T05:17:10.440Z,93.26
2018-05-26T05:18:10.420Z,93.64
2018-05-26T05:19:10.538Z,94.02
2018-05-26T05:20:10.671Z,94.12
2018-05-26T05:21:10.719Z,94.12
2018-05-26T05:22:10.976Z,94.12
2018-05-26T05:23:10.948Z,94.21
2018-05-26T05:24:11.040Z,93.40
2018-05-26T05:25:11.583Z,92.15
2018-05-26T05:26:11.286Z,89.99
2018-05-26T05:27:11.397Z,88.31
2018-05-26T05:28:11.534Z,86.62
2018-05-26T05:29:11.741Z,84.94
2018-05-26T05:30:11.757Z,82.96
2018-05-26T05:31:11.852Z,81.94
2018-05-26T05:32:11.970Z,80.54
2018-05-26T05:33:12.054Z,77.31
2018-05-26T05:34:12.147Z,75.86
2018-05-26T05:35:12.239Z,75.19
2018-05-26T05:36:12.314Z,75.48
2018-05-26T05:37:12.441Z,75.28
2018-05-26T05:38:12.537Z,74.71
2018-05-26T05:39:12.623Z,74.41
2018-05-26T05:40:12.736Z,74.36
2018-05-26T05:41:12.853Z,73.74
2018-05-26T05:42:12.949Z,74.55
2018-05-26T05:43:13.113Z,73.62
2018-05-26T05:44:13.149Z,72.12
2018-05-26T05:45:13.250Z,71.28
2018-05-26T05:46:13.366Z,70.36
2018-05-26T05:47:13.484Z,69.04
2018-05-26T05:48:13.577Z,67.62
2018-05-26T05:49:13.677Z,67.08
2018-05-26T05:50:13.781Z,65.85
2018-05-26T05:51:13.893Z,64.01
2018-05-26T05:52:13.999Z,63.82
2018-05-26T05:53:14.089Z,63.66
2018-05-26T05:54:14.248Z,63.43
2018-05-26T05:55:14.367Z,62.69
2018-05-26T05:56:14.481Z,63.01
2018-05-26T05:57:14.565Z,61.95
2018-05-26T05:58:14.687Z,61.08
2018-05-26T05:59:14.801Z,60.59
2018-05-26T06:00:14.925Z,61.24
2018-05-26T06:01:15.028Z,61.27
2018-05-26T06:02:15.140Z,61.18
2018-05-26T06:03:15.238Z,59.94
2018-05-26T06:04:15.346Z,59.20
2018-05-26T06:05:15.459Z,58.52
2018-05-26T06:06:15.562Z,58.16
2018-05-26T06:07:15.659Z,58.16
2018-05-26T06:08:15.784Z,57.58
2018-05-26T06:09:15.903Z,57.29
2018-05-26T06:10:16.024Z,57.00
2018-05-26T06:11:16.177Z,57.58
2018-05-26T06:12:16.287Z,57.87
2018-05-26T06:13:16.405Z,57.48
2018-05-26T06:14:16.517Z,57.29
2018-05-26T06:15:16.643Z,57.09
2018-05-26T06:16:16.757Z,56.81
2018-05-26T06:17:16.867Z,57.09
2018-05-26T06:18:17.095Z,57.58
2018-05-26T06:19:17.087Z,57.00
2018-05-26T06:20:17.242Z,56.90
2018-05-26T06:21:17.349Z,57.00
2018-05-26T06:22:17.449Z,57.09
2018-05-26T06:23:17.555Z,57.84
2018-05-26T06:24:17.669Z,58.11
2018-05-26T06:25:17.791Z,58.78
2018-05-26T06:26:17.899Z,58.88
2018-05-26T06:27:18.039Z,59.63
2018-05-26T06:28:18.147Z,59.91
2018-05-26T06:29:18.258Z,61.33
2018-05-26T06:30:18.366Z,62.11
2018-05-26T06:31:18.499Z,62.27
2018-05-26T06:32:18.608Z,62.76
2018-05-26T06:33:18.716Z,63.63
2018-05-26T06:34:18.822Z,63.98
2018-05-26T06:35:18.961Z,64.47
2018-05-26T06:36:19.076Z,64.85
2018-05-26T06:37:19.184Z,65.14
2018-05-26T06:38:19.291Z,65.88
2018-05-26T06:39:19.409Z,66.01
2018-05-26T06:40:19.517Z,66.59
2018-05-26T06:41:19.630Z,67.17
2018-05-26T06:42:19.731Z,66.94
2018-05-26T06:43:19.841Z,66.75
2018-05-26T06:44:19.944Z,67.14
2018-05-26T06:45:20.064Z,66.66
2018-05-26T06:46:20.156Z,66.85
2018-05-26T06:47:20.254Z,66.94
2018-05-26T06:48:20.363Z,67.43
2018-05-26T06:49:20.469Z,67.52
2018-05-26T06:50:20.577Z,66.94
2018-05-26T06:51:20.706Z,67.82
2018-05-26T06:52:20.789Z,67.08
2018-05-26T06:53:20.895Z,66.85
2018-05-26T06:54:21.000Z,66.69
2018-05-26T06:55:21.106Z,67.36
2018-05-26T06:56:21.212Z,67.56
2018-05-26T06:57:21.323Z,68.43
2018-05-26T06:58:21.431Z,67.56
2018-05-26T06:59:21.535Z,67.72
2018-05-26T07:00:21.651Z,68.30
2018-05-26T07:01:21.756Z,68.43
2018-05-26T07:02:21.858Z,69.10
2018-05-26T07:03:21.967Z,69.20
2018-05-26T07:04:22.056Z,69.98
2018-05-26T07:05:22.159Z,69.98
2018-05-26T07:06:22.283Z,70.26
2018-05-26T07:07:22.380Z,70.36
2018-05-26T07:08:22.515Z,69.01
2018-05-26T07:09:22.725Z,68.04
2018-05-26T07:10:22.724Z,69.01
2018-05-26T07:11:22.830Z,69.53
2018-05-26T07:12:22.965Z,70.50
2018-05-26T07:13:23.067Z,70.36
2018-05-26T07:14:23.173Z,69.01
2018-05-26T07:15:23.277Z,69.01
2018-05-26T07:16:23.385Z,69.40
2018-05-26T07:17:23.492Z,68.56
2018-05-26T07:18:23.595Z,69.04
2018-05-26T07:19:23.700Z,70.36
2018-05-26T07:20:23.804Z,69.72
2018-05-26T07:21:23.911Z,68.75
2018-05-26T07:22:24.018Z,68.75
2018-05-26T07:23:24.124Z,69.14
2018-05-26T07:24:24.219Z,69.43
2018-05-26T07:25:24.324Z,67.49
2018-05-26T07:26:24.429Z,68.01
2018-05-26T07:27:24.536Z,68.21
2018-05-26T07:28:24.641Z,67.82
2018-05-26T07:29:24.746Z,67.05
2018-05-26T07:30:24.852Z,65.50
2018-05-26T07:31:24.962Z,64.92
2018-05-26T07:32:25.066Z,64.24
2018-05-26T07:33:25.170Z,64.34
2018-05-26T07:34:25.278Z,64.62
2018-05-26T07:35:25.385Z,65.20
2018-05-26T07:36:25.494Z,65.69
2018-05-26T07:37:25.596Z,64.69
2018-05-26T07:38:25.709Z,65.98
2018-05-26T07:39:25.837Z,65.11
2018-05-26T07:40:25.937Z,64.43
2018-05-26T07:41:26.044Z,65.88
2018-05-26T07:42:26.152Z,64.92
2018-05-26T07:43:26.254Z,65.01
2018-05-26T07:44:26.365Z,64.43
2018-05-26T07:45:26.468Z,64.92
2018-05-26T07:46:26.565Z,63.98
2018-05-26T07:47:26.670Z,64.37
2018-05-26T07:48:26.805Z,64.17
2018-05-26T07:49:26.936Z,64.62
2018-05-26T07:50:27.076Z,64.34
2018-05-26T07:51:27.198Z,65.11
2018-05-26T07:52:27.300Z,64.34
2018-05-26T07:53:27.407Z,65.01
2018-05-26T07:54:27.511Z,65.24
2018-05-26T07:55:27.622Z,65.53
2018-05-26T07:56:27.726Z,67.01
2018-05-26T07:57:27.833Z,68.04
2018-05-26T07:58:27.958Z,68.91
2018-05-26T07:59:28.111Z,68.72
2018-05-26T08:00:28.157Z,69.04
2018-05-26T08:01:28.262Z,68.85
2018-05-26T08:02:28.369Z,67.43
2018-05-26T08:03:28.475Z,66.85
2018-05-26T08:04:28.582Z,66.85
2018-05-26T08:05:28.710Z,66.27
2018-05-26T08:06:28.792Z,66.72
2018-05-26T08:07:28.899Z,67.59
2018-05-26T08:08:29.006Z,67.94
2018-05-26T08:09:29.121Z,69.30
2018-05-26T08:10:29.222Z,68.95
2018-05-26T08:11:29.331Z,69.53
2018-05-26T08:12:29.434Z,68.11
2018-05-26T08:13:29.536Z,68.01
2018-05-26T08:14:29.642Z,67.72
2018-05-26T08:15:29.751Z,66.02
2018-05-26T08:16:29.861Z,66.40
2018-05-26T08:17:29.969Z,65.92
2018-05-26T08:18:30.083Z,66.50
2018-05-26T08:19:30.192Z,67.11
2018-05-26T08:20:30.298Z,66.34
2018-05-26T08:21:30.404Z,64.59
2018-05-26T08:22:30.509Z,60.55
2018-05-26T08:23:30.613Z,60.75
2018-05-26T08:24:30.712Z,60.85
2018-05-26T08:25:30.817Z,59.20
2018-05-26T08:26:30.923Z,60.10
2018-05-26T08:27:31.030Z,60.75
2018-05-26T08:28:31.140Z,60.75
2018-05-26T08:29:31.247Z,60.49
2018-05-26T08:30:31.353Z,60.10
2018-05-26T08:31:31.447Z,59.30
2018-05-26T08:32:31.570Z,59.10
2018-05-26T08:33:31.692Z,59.13
2018-05-26T08:34:31.798Z,59.91
2018-05-26T08:35:31.910Z,60.58
2018-05-26T08:36:32.016Z,58.45
2018-05-26T08:37:32.122Z,58.33
2018-05-26T08:38:32.229Z,59.49
2018-05-26T08:39:32.333Z,59.49
2018-05-26T08:40:32.439Z,58.81
2018-05-26T08:41:32.546Z,58.52
2018-05-26T08:42:32.652Z,58.65
2018-05-26T08:43:32.758Z,58.84
2018-05-26T08:44:32.865Z,58.74
2018-05-26T08:45:32.977Z,59.33
2018-05-26T08:46:33.084Z,59.03
2018-05-26T08:47:33.192Z,57.51
2018-05-26T08:48:33.300Z,57.12
2018-05-26T08:49:33.413Z,57.00
2018-05-26T08:50:33.513Z,56.54
2018-05-26T08:51:33.620Z,56.83
2018-05-26T08:52:33.727Z,56.74
2018-05-26T08:53:33.835Z,57.97
2018-05-26T08:54:33.943Z,59.20
2018-05-26T08:55:34.051Z,59.39
2018-05-26T08:56:34.161Z,59.39
2018-05-26T08:57:34.269Z,58.91
2018-05-26T08:58:34.384Z,58.23
2018-05-26T08:59:34.485Z,58.72
2018-05-26T09:00:34.593Z,60.07
2018-05-26T09:01:34.703Z,59.94
2018-05-26T09:02:34.811Z,59.07
2018-05-26T09:03:34.923Z,58.59
2018-05-26T09:04:35.030Z,58.20
2018-05-26T09:05:35.183Z,56.97
2018-05-26T09:06:35.244Z,57.36
2018-05-26T09:07:35.352Z,54.84
2018-05-26T09:08:35.463Z,55.93
2018-05-26T09:09:35.566Z,55.54
2018-05-26T09:10:35.673Z,54.31
2018-05-26T09:11:35.778Z,54.11
2018-05-26T09:12:35.885Z,54.31
2018-05-26T09:13:35.991Z,55.02
2018-05-26T09:14:36.100Z,54.82
2018-05-26T09:15:36.211Z,53.95
2018-05-26T09:16:36.306Z,52.11
2018-05-26T09:17:36.422Z,50.09
2018-05-26T09:18:36.620Z,48.73
2018-05-26T09:19:36.635Z,48.73
2018-05-26T09:20:36.748Z,47.83
2018-05-26T09:21:36.855Z,48.52
2018-05-26T09:22:37.714Z,48.83
2018-05-26T09:23:37.240Z,48.93
2018-05-26T09:24:37.994Z,48.05
2018-05-26T09:25:37.430Z,48.25
2018-05-26T09:26:37.422Z,48.64
2018-05-26T09:27:37.448Z,47.83
2018-05-26T09:28:37.710Z,48.15
2018-05-26T09:29:37.742Z,48.52
2018-05-26T09:30:37.873Z,48.32
2018-05-26T09:31:38.058Z,49.00
2018-05-26T09:32:38.025Z,49.12
2018-05-26T09:33:38.132Z,49.71
2018-05-26T09:34:38.456Z,49.99
2018-05-26T09:35:38.510Z,48.25
2018-05-26T09:36:38.473Z,48.95
2018-05-26T09:37:38.722Z,48.54
2018-05-26T09:38:38.704Z,48.64
2018-05-26T09:39:38.917Z,49.73
2018-05-26T09:40:38.902Z,49.02
2018-05-26T09:41:39.066Z,49.32
2018-05-26T09:42:39.202Z,51.09
2018-05-26T09:43:39.547Z,49.82
2018-05-26T09:44:39.494Z,48.95
2018-05-26T09:45:39.680Z,48.75
2018-05-26T09:46:39.650Z,48.95
2018-05-26T09:47:39.748Z,49.07
2018-05-26T09:48:39.880Z,49.07
2018-05-26T09:49:40.040Z,48.27
2018-05-26T09:50:40.202Z,49.22
2018-05-26T09:51:40.246Z,48.47
2018-05-26T09:52:40.365Z,48.85
2018-05-26T09:53:40.486Z,48.57
2018-05-26T09:54:40.691Z,48.49
2018-05-26T09:55:40.882Z,47.81
2018-05-26T09:56:40.804Z,47.61
2018-05-26T09:57:40.999Z,47.91
2018-05-26T09:58:41.022Z,47.91
2018-05-26T09:59:41.282Z,46.94
2018-05-26T10:00:41.405Z,47.11
2018-05-26T10:01:41.634Z,47.52
2018-05-26T10:02:41.502Z,46.33
2018-05-26T10:03:41.531Z,46.60
2018-05-26T10:04:41.909Z,47.28
2018-05-26T10:05:41.767Z,48.05
2018-05-26T10:06:41.896Z,46.42
2018-05-26T10:07:42.164Z,46.23
2018-05-26T10:08:42.126Z,47.88
2018-05-26T10:09:42.240Z,48.49
2018-05-26T10:10:42.357Z,48.78
2018-05-26T10:11:42.472Z,48.30
2018-05-26T10:12:42.578Z,47.13
2018-05-26T10:13:42.695Z,47.20
2018-05-26T10:14:42.812Z,47.71
2018-05-26T10:15:42.919Z,47.61
2018-05-26T10:16:43.042Z,47.15
2018-05-26T10:17:43.148Z,46.86
2018-05-26T10:18:43.349Z,47.05
2018-05-26T10:19:43.345Z,45.79
2018-05-26T10:20:43.451Z,45.42
2018-05-26T10:21:43.589Z,45.23
2018-05-26T10:22:43.695Z,46.01
2018-05-26T10:23:43.838Z,44.26
2018-05-26T10:24:45.904Z,44.94
2018-05-26T10:25:44.024Z,43.87
2018-05-26T10:26:44.122Z,43.11
2018-05-26T10:27:44.231Z,43.29
2018-05-26T10:28:44.325Z,44.06
2018-05-26T10:29:44.428Z,44.16
2018-05-26T10:30:44.546Z,43.87
2018-05-26T10:31:44.652Z,45.52
2018-05-26T10:32:44.760Z,45.42
2018-05-26T10:33:44.918Z,43.87
2018-05-26T10:34:45.040Z,44.28
2018-05-26T10:35:45.153Z,43.99
2018-05-26T10:36:45.259Z,45.54
2018-05-26T10:37:45.368Z,45.15
2018-05-26T10:38:45.490Z,45.67
2018-05-26T10:39:45.591Z,44.20
2018-05-26T10:40:45.708Z,43.81
2018-05-26T10:41:45.832Z,42.65
2018-05-26T10:42:46.019Z,43.30
2018-05-26T10:43:45.990Z,43.70
2018-05-26T10:44:46.132Z,42.43
2018-05-26T10:45:46.234Z,44.26
2018-05-26T10:46:46.473Z,44.55
2018-05-26T10:47:46.519Z,44.57
2018-05-26T10:48:46.658Z,44.33
2018-05-26T10:49:46.763Z,44.65
2018-05-26T10:50:46.882Z,43.19
2018-05-26T10:51:47.047Z,43.60
2018-05-26T10:52:47.154Z,43.30
2018-05-26T10:53:47.255Z,43.50
2018-05-26T10:54:47.387Z,42.94
2018-05-26T10:55:47.620Z,41.57
2018-05-26T10:56:48.388Z,42.16
2018-05-26T10:57:47.805Z,42.65
2018-05-26T10:58:47.845Z,42.74
2018-05-26T10:59:48.037Z,42.47
2018-05-26T11:00:48.241Z,41.60
2018-05-26T11:01:50.793Z,41.60
2018-05-26T11:02:48.290Z,42.69
2018-05-26T11:03:48.434Z,42.69
2018-05-26T11:04:48.612Z,41.71
2018-05-26T11:05:48.667Z,41.91
2018-05-26T11:06:48.766Z,42.00
2018-05-26T11:07:48.870Z,42.51
2018-05-26T11:08:49.329Z,41.93
2018-05-26T11:09:49.094Z,40.95
2018-05-26T11:10:49.241Z,40.47
2018-05-26T11:11:49.384Z,41.11
2018-05-26T11:12:49.490Z,41.91
2018-05-26T11:13:49.598Z,42.49
2018-05-26T11:14:49.708Z,42.79
2018-05-26T11:15:49.816Z,41.81
2018-05-26T11:16:49.910Z,40.93
2018-05-26T11:17:50.204Z,40.55
2018-05-26T11:18:50.136Z,39.96
2018-05-26T11:19:50.235Z,40.55
2018-05-26T11:20:50.333Z,40.60
2018-05-26T11:21:50.449Z,41.48
2018-05-26T11:22:50.647Z,41.89
2018-05-26T11:23:50.665Z,42.38
2018-05-26T11:24:50.812Z,41.42
2018-05-26T11:25:50.885Z,41.71
2018-05-26T11:26:50.994Z,42.10
2018-05-26T11:27:51.102Z,41.63
2018-05-26T11:28:51.217Z,39.69
2018-05-26T11:29:51.352Z,40.42
2018-05-26T11:30:51.473Z,41.40
2018-05-26T11:31:51.550Z,41.60
2018-05-26T11:32:51.660Z,40.99
2018-05-26T11:33:51.768Z,41.57
2018-05-26T11:34:51.881Z,42.84
2018-05-26T11:35:51.987Z,42.55
2018-05-26T11:36:52.095Z,42.65
2018-05-26T11:37:52.205Z,42.28
2018-05-26T11:38:52.309Z,41.50
2018-05-26T11:39:52.423Z,40.73
2018-05-26T11:40:52.528Z,42.20
2018-05-26T11:41:52.637Z,40.16
2018-05-26T11:42:52.751Z,38.98
2018-05-26T11:43:52.863Z,38.79
2018-05-26T11:44:52.967Z,38.61
2018-05-26T11:45:53.080Z,39.20
2018-05-26T11:46:53.193Z,38.92
2018-05-26T11:47:53.299Z,38.73
2018-05-26T11:48:53.409Z,38.14
2018-05-26T11:49:53.524Z,38.43
2018-05-26T11:50:53.639Z,37.85
2018-05-26T11:51:53.751Z,37.95
2018-05-26T11:52:53.864Z,37.77
2018-05-26T11:53:53.969Z,36.80
2018-05-26T11:54:54.083Z,36.90
2018-05-26T11:55:54.193Z,36.88
2018-05-26T11:56:54.302Z,37.96
2018-05-26T11:57:54.414Z,36.31
2018-05-26T11:58:54.529Z,36.11
2018-05-26T11:59:54.624Z,36.41
2018-05-26T12:00:54.745Z,37.75
2018-05-26T12:01:54.895Z,37.85
2018-05-26T12:02:54.962Z,38.06
2018-05-26T12:03:55.074Z,38.35
2018-05-26T12:04:55.185Z,38.45
2018-05-26T12:05:55.295Z,37.96
2018-05-26T12:06:55.402Z,38.16
2018-05-26T12:07:55.514Z,38.55
2018-05-26T12:08:55.627Z,38.35
2018-05-26T12:09:55.732Z,38.06
2018-05-26T12:10:55.903Z,37.29
2018-05-26T12:11:55.952Z,37.30
2018-05-26T12:12:56.068Z,38.16
2018-05-26T12:13:56.179Z,38.45
2018-05-26T12:14:56.293Z,39.14
2018-05-26T12:15:56.405Z,37.79
2018-05-26T12:16:56.512Z,37.40
2018-05-26T12:17:56.621Z,37.77
2018-05-26T12:18:56.728Z,37.79
2018-05-26T12:19:56.846Z,37.89
2018-05-26T12:20:56.962Z,38.09
2018-05-26T12:21:57.061Z,36.62
2018-05-26T12:22:57.173Z,37.11
2018-05-26T12:23:57.282Z,37.11
2018-05-26T12:24:57.393Z,37.60
2018-05-26T12:25:57.500Z,37.70
2018-05-26T12:26:57.675Z,38.48
2018-05-26T12:27:57.722Z,38.18
2018-05-26T12:28:57.829Z,38.16
2018-05-26T12:29:57.940Z,38.84
2018-05-26T12:30:58.053Z,39.90
2018-05-26T12:31:58.162Z,39.98
2018-05-26T12:32:58.271Z,40.08
2018-05-26T12:33:58.391Z,40.47
2018-05-26T12:34:58.511Z,40.66
2018-05-26T12:35:58.601Z,39.88
2018-05-26T12:36:58.714Z,39.78
2018-05-26T12:37:58.824Z,39.61
2018-05-26T12:38:58.935Z,39.22
2018-05-26T12:39:59.108Z,39.61
2018-05-26T12:40:59.162Z,38.82
2018-05-26T12:41:59.271Z,39.72
2018-05-26T12:42:59.383Z,38.26
2018-05-26T12:43:59.509Z,38.04
2018-05-26T12:44:59.596Z,36.90
2018-05-26T12:45:59.709Z,38.53
2018-05-26T12:46:59.817Z,38.43
2018-05-26T12:47:59.928Z,38.73
2018-05-26T12:49:00.036Z,38.53
2018-05-26T12:50:00.149Z,38.82
2018-05-26T12:51:00.259Z,39.12
2018-05-26T12:52:00.371Z,39.90
2018-05-26T12:53:00.484Z,39.41
2018-05-26T12:54:00.591Z,39.90